Time;durP1;ratioP1;P1;durP2;ratioP2;P2;SDS_P1;SDS_P2;PMS_P1;PMS_P2;Temp;Humidity;BMP_temperature;BMP_pressure;BME280_temperature;BME280_humidity;BME280_pressure;Samples;Min_cycle;Max_cycle;Signal;HPM_P1;HPM_P2
2021/03/05 00:00:19;;;;;;;1.73;1.63;;;20.50;20.20;;;;;;5033453;28;20164;-51
2021/03/05 00:02:45;;;;;;;3.78;2.55;;;20.50;20.20;;;;;;5033298;28;20148;-53
2021/03/05 00:05:11;;;;;;;2.40;2.20;;;20.50;20.20;;;;;;5033584;28;20156;-51
2021/03/05 00:07:38;;;;;;;1.80;1.70;;;20.50;20.20;;;;;;5033750;28;20152;-50
2021/03/05 00:10:07;;;;;;;2.47;2.28;;;20.50;20.20;;;;;;5033075;28;20184;-51
2021/03/05 00:12:32;;;;;;;2.85;2.30;;;20.50;20.20;;;;;;5033492;28;20187;-51
2021/03/05 00:14:58;;;;;;;2.20;2.00;;;20.50;20.20;;;;;;5034294;28;20188;-51
2021/03/05 00:17:24;;;;;;;1.93;1.83;;;20.50;20.20;;;;;;5037499;28;20613;-52
2021/03/05 00:19:49;;;;;;;2.60;2.40;;;20.50;20.20;;;;;;5036933;28;20690;-51
2021/03/05 00:22:15;;;;;;;1.90;1.80;;;20.50;20.20;;;;;;5037223;28;20507;-51
2021/03/05 00:24:40;;;;;;;2.37;2.17;;;20.50;20.20;;;;;;5036727;28;20187;-50
2021/03/05 00:27:06;;;;;;;1.97;1.77;;;20.50;20.20;;;;;;5037103;28;20174;-52
2021/03/05 00:29:34;;;;;;;2.23;1.93;;;20.50;20.20;;;;;;5037056;28;20243;-51
2021/03/05 00:32:00;;;;;;;1.65;1.55;;;20.50;20.20;;;;;;5037379;28;20243;-51
2021/03/05 00:34:28;;;;;;;2.37;1.77;;;20.50;20.30;;;;;;5036870;28;20239;-52
2021/03/05 00:36:53;;;;;;;2.10;1.88;;;20.50;20.30;;;;;;5036585;28;20237;-52
2021/03/05 00:39:22;;;;;;;3.27;2.43;;;20.40;20.20;;;;;;5036456;28;20647;-51
2021/03/05 00:41:47;;;;;;;2.42;2.20;;;20.40;20.30;;;;;;5036895;28;20163;-52
2021/03/05 00:44:15;;;;;;;2.30;2.10;;;20.40;20.30;;;;;;5036868;28;20164;-51
2021/03/05 00:46:41;;;;;;;2.45;2.25;;;20.40;20.30;;;;;;5036937;28;20251;-51
2021/03/05 00:49:06;;;;;;;2.03;1.83;;;20.40;20.30;;;;;;5036758;28;20243;-51
2021/03/05 00:51:32;;;;;;;2.00;1.77;;;20.40;20.40;;;;;;5036809;28;20269;-50
2021/03/05 00:53:58;;;;;;;1.77;1.67;;;20.40;20.90;;;;;;5036364;28;20191;-51
2021/03/05 00:56:26;;;;;;;2.07;1.87;;;20.40;20.40;;;;;;5036940;28;20661;-51
2021/03/05 00:58:54;;;;;;;2.65;2.08;;;20.40;20.40;;;;;;5036580;28;20219;-51
2021/03/05 01:01:20;;;;;;;3.03;2.15;;;20.40;20.50;;;;;;5026673;28;20184;-51
2021/03/05 01:03:46;;;;;;;2.10;2.00;;;20.40;20.50;;;;;;5035657;28;20266;-52
2021/03/05 01:06:12;;;;;;;2.23;2.03;;;20.40;20.50;;;;;;5019013;28;20642;-52
2021/03/05 01:08:37;;;;;;;2.03;1.93;;;20.40;20.50;;;;;;5035972;28;20455;-52
2021/03/05 01:11:03;;;;;;;2.90;2.63;;;20.40;20.50;;;;;;5036621;28;20410;-51
2021/03/05 01:13:29;;;;;;;3.50;1.70;;;20.40;20.50;;;;;;5036481;28;20228;-51
2021/03/05 01:15:55;;;;;;;2.20;2.00;;;20.30;20.40;;;;;;5036548;28;20206;-51
2021/03/05 01:18:24;;;;;;;1.60;1.50;;;20.30;20.40;;;;;;5035982;28;20223;-51
2021/03/05 01:20:49;;;;;;;2.63;1.92;;;20.30;20.40;;;;;;5036467;28;20157;-51
2021/03/05 01:23:16;;;;;;;2.67;1.90;;;20.30;20.40;;;;;;5035912;28;20179;-51
2021/03/05 01:25:42;;;;;;;2.00;1.90;;;20.30;20.40;;;;;;5035794;28;20160;-51
2021/03/05 01:28:08;;;;;;;2.03;1.83;;;20.30;20.40;;;;;;5036238;28;20263;-51
2021/03/05 01:30:33;;;;;;;2.43;2.23;;;20.30;20.40;;;;;;5036129;28;20246;-51
2021/03/05 01:32:59;;;;;;;2.00;1.90;;;20.30;20.40;;;;;;5035420;28;20174;-52
2021/03/05 01:35:29;;;;;;;1.90;1.80;;;20.30;20.40;;;;;;5036051;28;20164;-52
2021/03/05 01:37:55;;;;;;;2.10;2.00;;;20.30;20.40;;;;;;5035954;28;20196;-52
2021/03/05 01:40:28;;;;;;;2.03;1.93;;;20.20;20.40;;;;;;5036178;28;20652;-51
2021/03/05 01:42:53;;;;;;;2.50;2.30;;;20.30;20.40;;;;;;5035878;28;20844;-52
2021/03/05 01:45:22;;;;;;;1.90;1.77;;;20.20;20.40;;;;;;5035815;28;20174;-52
2021/03/05 01:47:54;;;;;;;2.10;2.00;;;20.20;20.40;;;;;;5035688;28;20156;-51
2021/03/05 01:50:29;;;;;;;1.95;1.75;;;20.20;20.40;;;;;;5035870;28;20152;-50
2021/03/05 01:53:00;;;;;;;2.10;1.85;;;20.20;20.40;;;;;;5035872;28;20151;-50
2021/03/05 01:55:27;;;;;;;3.03;1.85;;;20.20;20.40;;;;;;5035737;28;20157;-52
2021/03/05 01:57:53;;;;;;;2.13;1.95;;;20.20;20.40;;;;;;5035622;28;20647;-52
2021/03/05 02:00:28;;;;;;;2.47;2.10;;;20.20;20.40;;;;;;5035604;28;20155;-51
2021/03/05 02:02:56;;;;;;;2.38;1.83;;;20.20;20.40;;;;;;5035526;28;20155;-52
2021/03/05 02:05:22;;;;;;;2.17;1.98;;;20.20;20.40;;;;;;5035501;28;20612;-52
2021/03/05 02:07:47;;;;;;;2.23;2.00;;;20.20;20.40;;;;;;5035455;28;20210;-52
2021/03/05 02:10:15;;;;;;;2.10;2.00;;;20.20;20.40;;;;;;5034967;28;20188;-51
2021/03/05 02:12:41;;;;;;;3.50;2.22;;;20.20;20.40;;;;;;5035333;28;20164;-52
2021/03/05 02:15:07;;;;;;;1.80;1.70;;;20.20;20.40;;;;;;5035334;28;20624;-51
2021/03/05 02:17:45;;;;;;;1.65;1.55;;;20.20;20.40;;;;;;5034598;28;20274;-51
2021/03/05 02:20:23;;;;;;;2.15;1.95;;;20.20;20.40;;;;;;4996041;28;20176;-52
2021/03/05 02:23:08;;;;;;;1.80;1.70;;;20.10;20.30;;;;;;4995700;28;20149;-52
2021/03/05 02:26:02;;;;;;;1.58;1.48;;;20.10;20.30;;;;;;4995855;28;20158;-52
2021/03/05 02:28:40;;;;;;;2.38;2.00;;;20.10;20.30;;;;;;4988764;28;20649;-51
2021/03/05 02:31:26;;;;;;;2.00;1.90;;;20.10;20.30;;;;;;4995573;28;20616;-51
2021/03/05 02:33:59;;;;;;;2.13;1.92;;;20.10;20.30;;;;;;4994196;28;20234;-51
2021/03/05 02:36:40;;;;;;;2.40;1.90;;;20.10;20.30;;;;;;4995545;28;20169;-51
2021/03/05 02:39:12;;;;;;;2.15;1.95;;;20.10;20.30;;;;;;4994257;28;20184;-51
2021/03/05 02:41:41;;;;;;;1.83;1.70;;;20.10;20.30;;;;;;4995449;28;20153;-51
2021/03/05 02:44:11;;;;;;;2.03;1.75;;;20.10;20.30;;;;;;4995314;28;20191;-51
2021/03/05 02:46:42;;;;;;;2.05;1.85;;;20.10;20.30;;;;;;4995311;28;20244;-52
2021/03/05 02:49:13;;;;;;;2.83;2.10;;;20.10;20.30;;;;;;4995324;28;20165;-51
2021/03/05 02:51:41;;;;;;;2.28;2.00;;;20.10;20.30;;;;;;4995232;28;20184;-52
2021/03/05 02:54:11;;;;;;;2.28;1.95;;;20.10;20.30;;;;;;4994726;28;20520;-51
2021/03/05 02:56:43;;;;;;;2.50;2.30;;;20.10;20.30;;;;;;4995004;28;20636;-51
2021/03/05 02:59:12;;;;;;;2.05;1.80;;;20.10;20.30;;;;;;4994957;28;20228;-51
2021/03/05 03:01:39;;;;;;;2.17;1.95;;;20.10;20.30;;;;;;4994971;28;20180;-52
2021/03/05 03:04:05;;;;;;;2.22;2.03;;;20.00;20.20;;;;;;4994832;28;20161;-51
2021/03/05 03:06:32;;;;;;;2.33;2.13;;;20.10;20.30;;;;;;4994632;28;20621;-52
2021/03/05 03:09:05;;;;;;;2.67;1.70;;;20.00;20.80;;;;;;4994429;28;20172;-52
2021/03/05 03:11:33;;;;;;;2.13;1.92;;;21.70;21.40;;;;;;4986401;28;20652;-51
2021/03/05 03:14:01;;;;;;;2.30;2.05;;;20.00;20.20;;;;;;4994361;28;20200;-51
2021/03/05 03:16:28;;;;;;;1.80;1.70;;;20.00;20.20;;;;;;4994789;28;20184;-51
2021/03/05 03:18:59;;;;;;;1.75;1.65;;;20.00;20.20;;;;;;5002648;28;20223;-51
2021/03/05 03:21:26;;;;;;;2.10;1.95;;;20.00;20.20;;;;;;5014377;28;20152;-51
2021/03/05 03:23:56;;;;;;;2.33;2.13;;;20.00;20.20;;;;;;5012924;28;20619;-51
2021/03/05 03:26:23;;;;;;;2.20;2.03;;;20.00;20.20;;;;;;5014147;28;20671;-52
2021/03/05 03:28:49;;;;;;;4.50;2.05;;;20.00;20.20;;;;;;5014049;28;20227;-52
2021/03/05 03:31:16;;;;;;;2.00;1.90;;;20.00;20.20;;;;;;5014324;28;20184;-51
2021/03/05 03:33:42;;;;;;;2.03;1.83;;;20.00;20.20;;;;;;5013303;28;20598;-52
2021/03/05 03:36:11;;;;;;;2.33;1.77;;;20.00;20.20;;;;;;5014285;28;20240;-53
2021/03/05 03:38:40;;;;;;;2.30;1.90;;;20.00;20.20;;;;;;5013554;28;20687;-51
2021/03/05 03:41:11;;;;;;;1.48;1.38;;;20.00;20.20;;;;;;5014199;28;20157;-51
2021/03/05 03:43:37;;;;;;;3.08;1.92;;;20.00;20.20;;;;;;5013847;28;20635;-51
2021/03/05 03:46:07;;;;;;;1.80;1.60;;;19.90;20.20;;;;;;5012988;28;20172;-52
2021/03/05 03:48:34;;;;;;;2.70;1.80;;;19.90;20.20;;;;;;5013654;28;20155;-51
2021/03/05 03:51:06;;;;;;;2.10;1.70;;;19.90;20.20;;;;;;5014061;28;20192;-51
2021/03/05 03:53:35;;;;;;;2.38;1.67;;;19.90;20.20;;;;;;5013153;28;20161;-51
2021/03/05 03:56:02;;;;;;;1.80;1.70;;;19.90;20.20;;;;;;5014183;28;20168;-52
2021/03/05 03:58:29;;;;;;;2.00;1.80;;;19.90;20.20;;;;;;5013452;28;20195;-52
2021/03/05 04:00:59;;;;;;;2.15;2.05;;;19.90;20.20;;;;;;5013770;28;20199;-51
2021/03/05 04:03:28;;;;;;;2.30;1.95;;;19.90;20.20;;;;;;5012440;28;20218;-51
2021/03/05 04:05:55;;;;;;;1.60;1.50;;;19.90;20.20;;;;;;5013871;28;20552;-52
2021/03/05 04:08:25;;;;;;;1.80;1.70;;;19.90;20.20;;;;;;5013133;28;20263;-51
2021/03/05 04:10:57;;;;;;;2.67;2.47;;;19.90;20.20;;;;;;5013855;28;20163;-51
2021/03/05 04:13:23;;;;;;;2.05;1.95;;;19.90;20.30;;;;;;5012521;28;20612;-51
2021/03/05 04:15:49;;;;;;;2.30;1.80;;;19.90;20.30;;;;;;5013006;28;20260;-51
2021/03/05 04:18:18;;;;;;;1.80;1.70;;;19.90;20.30;;;;;;5007484;28;20766;-51
2021/03/05 04:20:48;;;;;;;1.80;1.70;;;19.90;20.40;;;;;;4994004;28;20157;-52
2021/03/05 04:23:13;;;;;;;2.13;1.92;;;19.90;20.40;;;;;;4993570;28;20156;-52
2021/03/05 04:25:39;;;;;;;1.97;1.87;;;19.90;20.30;;;;;;4993928;28;20161;-52
2021/03/05 04:28:05;;;;;;;1.97;1.87;;;19.90;20.40;;;;;;4993949;28;20173;-51
2021/03/05 04:30:33;;;;;;;2.08;1.70;;;19.90;20.30;;;;;;4993685;28;20303;-52
2021/03/05 04:32:59;;;;;;;1.77;1.65;;;19.90;20.40;;;;;;4993833;28;20521;-51
2021/03/05 04:35:24;;;;;;;2.07;1.97;;;19.90;20.40;;;;;;4992798;28;20635;-52
2021/03/05 04:37:53;;;;;;;1.73;1.63;;;19.90;20.40;;;;;;4993779;28;20189;-51
2021/03/05 04:40:18;;;;;;;2.33;2.13;;;19.90;20.40;;;;;;4993243;28;20158;-52
2021/03/05 04:42:44;;;;;;;1.97;1.77;;;19.90;20.40;;;;;;4993831;28;20172;-51
2021/03/05 04:45:10;;;;;;;2.40;1.70;;;19.90;20.40;;;;;;4993821;28;20158;-51
2021/03/05 04:47:35;;;;;;;2.03;1.87;;;19.90;20.50;;;;;;4993245;28;20180;-51
2021/03/05 04:50:03;;;;;;;2.07;1.87;;;19.80;20.40;;;;;;4993849;28;20201;-51
2021/03/05 04:52:29;;;;;;;1.98;1.88;;;19.80;20.40;;;;;;4993579;28;20240;-51
2021/03/05 04:54:55;;;;;;;2.73;1.80;;;19.80;20.40;;;;;;4993203;28;20261;-51
2021/03/05 04:57:20;;;;;;;2.03;1.87;;;19.80;20.40;;;;;;4993807;28;20157;-51
2021/03/05 04:59:46;;;;;;;1.73;1.63;;;19.80;20.40;;;;;;4993519;28;20570;-51
2021/03/05 05:02:12;;;;;;;2.40;2.20;;;19.80;20.40;;;;;;4996310;28;20260;-51
2021/03/05 05:04:37;;;;;;;2.43;2.23;;;19.80;20.40;;;;;;4997196;28;20556;-51
2021/03/05 05:07:06;;;;;;;1.60;1.50;;;19.80;20.40;;;;;;4997254;28;20625;-51
2021/03/05 05:09:34;;;;;;;1.70;1.60;;;19.80;20.40;;;;;;4996659;28;20175;-51
2021/03/05 05:12:02;;;;;;;1.90;1.80;;;19.80;20.40;;;;;;4996979;28;20169;-51
2021/03/05 05:14:28;;;;;;;1.83;1.70;;;19.80;20.50;;;;;;4996852;28;20170;-51
2021/03/05 05:16:54;;;;;;;1.73;1.63;;;19.80;20.50;;;;;;4997087;28;20523;-52
2021/03/05 05:19:19;;;;;;;2.00;1.80;;;19.80;20.50;;;;;;5022613;28;20273;-51
2021/03/05 05:21:45;;;;;;;2.70;2.30;;;19.80;20.50;;;;;;5036348;28;20506;-52
2021/03/05 05:24:11;;;;;;;1.83;1.67;;;19.80;20.50;;;;;;5035963;28;20187;-51
2021/03/05 05:26:39;;;;;;;1.60;1.50;;;19.80;20.50;;;;;;5036254;28;20190;-52
2021/03/05 05:29:07;;;;;;;2.25;1.90;;;19.80;20.50;;;;;;5036220;28;20243;-52
2021/03/05 05:31:32;;;;;;;1.85;1.75;;;19.80;20.50;;;;;;5036261;28;20175;-52
2021/03/05 05:33:58;;;;;;;1.80;1.70;;;19.80;20.60;;;;;;5035933;28;20191;-51
2021/03/05 05:36:23;;;;;;;1.87;1.77;;;19.80;20.50;;;;;;5035928;28;20536;-51
2021/03/05 05:38:49;;;;;;;1.77;1.67;;;19.80;20.60;;;;;;5035375;28;20200;-51
2021/03/05 05:41:15;;;;;;;1.93;1.80;;;19.80;20.60;;;;;;5036250;28;20160;-51
2021/03/05 05:43:40;;;;;;;1.87;1.77;;;19.80;20.60;;;;;;5036046;28;20577;-50
2021/03/05 05:46:08;;;;;;;1.77;1.67;;;19.80;20.60;;;;;;5035936;28;20156;-51
2021/03/05 05:48:38;;;;;;;2.97;2.67;;;19.80;20.60;;;;;;5035689;28;20160;-51
2021/03/05 05:51:33;;;;;;;2.00;1.80;;;19.80;20.60;;;;;;5035671;28;20160;-52
2021/03/05 05:54:15;;;;;;;1.70;1.60;;;19.80;20.60;;;;;;5033514;28;20273;-52
2021/03/05 05:56:43;;;;;;;1.58;1.48;;;19.80;20.60;;;;;;5035635;28;20607;-51
2021/03/05 05:59:09;;;;;;;1.70;1.60;;;20.10;21.70;;;;;;5035433;28;20223;-53
2021/03/05 06:01:35;;;;;;;1.90;1.80;;;19.80;20.60;;;;;;5035482;28;20191;-51
2021/03/05 06:04:02;;;;;;;1.80;1.33;;;19.60;21.00;;;;;;5035434;28;20176;-52
2021/03/05 06:06:29;;;;;;;1.92;1.73;;;19.70;20.50;;;;;;5035470;28;20494;-52
2021/03/05 06:09:01;;;;;;;2.08;1.88;;;19.70;20.50;;;;;;5035020;28;20209;-52
2021/03/05 06:11:34;;;;;;;1.50;1.40;;;19.70;20.60;;;;;;5035339;28;20599;-52
2021/03/05 06:14:08;;;;;;;1.90;1.80;;;19.70;20.50;;;;;;5035207;28;20191;-52
2021/03/05 06:16:34;;;;;;;2.00;1.77;;;19.70;20.60;;;;;;5035082;28;20246;-51
2021/03/05 06:19:00;;;;;;;1.85;1.70;;;19.70;20.50;;;;;;5034777;28;20215;-51
2021/03/05 06:21:37;;;;;;;1.98;1.70;;;19.70;20.60;;;;;;5034916;28;20238;-51
2021/03/05 06:24:06;;;;;;;1.90;1.80;;;19.70;20.60;;;;;;5034684;28;20147;-51
2021/03/05 06:26:53;;;;;;;2.50;1.98;;;19.70;20.50;;;;;;5034995;28;20239;-52
2021/03/05 06:29:24;;;;;;;1.70;1.60;;;19.70;20.60;;;;;;5035158;28;20160;-52
2021/03/05 06:32:01;;;;;;;1.73;1.63;;;19.70;20.60;;;;;;5035013;28;20703;-52
2021/03/05 06:34:29;;;;;;;1.55;1.45;;;19.70;20.60;;;;;;5034466;28;20598;-52
2021/03/05 06:36:59;;;;;;;2.38;2.17;;;19.70;20.60;;;;;;5034554;28;20164;-51
2021/03/05 06:39:26;;;;;;;2.20;2.00;;;19.70;20.60;;;;;;5034144;28;20188;-52
2021/03/05 06:42:09;;;;;;;2.40;1.90;;;19.70;20.60;;;;;;5034733;28;20164;-52
2021/03/05 06:44:37;;;;;;;1.70;1.60;;;19.70;20.60;;;;;;5034435;28;20235;-52
2021/03/05 06:47:16;;;;;;;1.73;1.63;;;19.70;20.60;;;;;;5034640;28;20243;-53
2021/03/05 06:49:44;;;;;;;1.85;1.58;;;19.70;20.60;;;;;;5034447;28;20583;-51
2021/03/05 06:52:14;;;;;;;2.10;1.88;;;19.70;20.60;;;;;;5034145;28;20636;-52
2021/03/05 06:54:41;;;;;;;1.80;1.70;;;19.70;20.60;;;;;;5033433;28;20217;-52
2021/03/05 06:57:09;;;;;;;1.75;1.40;;;19.70;20.60;;;;;;5034438;28;20160;-52
2021/03/05 06:59:46;;;;;;;1.73;1.63;;;19.70;20.60;;;;;;5034171;28;20227;-52
2021/03/05 07:02:17;;;;;;;1.90;1.80;;;19.70;21.20;;;;;;5033997;28;20163;-52
2021/03/05 07:04:42;;;;;;;2.17;2.03;;;19.60;20.50;;;;;;5034167;28;20199;-52
2021/03/05 07:07:09;;;;;;;2.37;2.13;;;19.60;20.50;;;;;;5033907;28;20152;-51
2021/03/05 07:09:40;;;;;;;1.63;1.52;;;19.60;20.60;;;;;;5033061;28;20580;-52
2021/03/05 07:12:16;;;;;;;2.03;1.80;;;19.60;20.50;;;;;;5033971;28;20156;-52
2021/03/05 07:14:43;;;;;;;2.72;1.58;;;19.60;20.50;;;;;;5033682;28;20147;-51
2021/03/05 07:17:09;;;;;;;1.58;1.48;;;19.60;20.50;;;;;;5033706;28;20160;-51
2021/03/05 07:19:37;;;;;;;1.58;1.48;;;19.60;20.50;;;;;;5033346;28;20231;-51
2021/03/05 07:22:05;;;;;;;3.13;1.98;;;19.60;20.50;;;;;;5033353;28;20182;-51
2021/03/05 07:24:32;;;;;;;4.97;1.92;;;19.60;20.50;;;;;;5032653;28;20156;-51
2021/03/05 07:27:01;;;;;;;1.73;1.63;;;19.60;20.50;;;;;;5033595;28;20197;-52
2021/03/05 07:29:33;;;;;;;2.08;1.88;;;19.60;20.60;;;;;;5033928;28;20179;-51
2021/03/05 07:32:10;;;;;;;1.95;1.85;;;19.60;20.60;;;;;;5033881;28;20167;-51
2021/03/05 07:34:55;;;;;;;1.30;1.20;;;19.60;20.60;;;;;;5033301;28;20243;-51
2021/03/05 07:37:25;;;;;;;3.08;1.90;;;19.60;20.60;;;;;;5033727;28;20183;-53
2021/03/05 07:39:54;;;;;;;1.77;1.65;;;19.60;20.60;;;;;;5032898;28;20278;-52
2021/03/05 07:42:24;;;;;;;1.75;1.65;;;19.60;20.60;;;;;;5033339;28;20174;-51
2021/03/05 07:44:49;;;;;;;1.70;1.60;;;19.60;20.60;;;;;;5033121;28;20156;-52
2021/03/05 07:47:16;;;;;;;1.93;1.73;;;19.60;20.60;;;;;;5033242;28;20631;-52
2021/03/05 07:49:44;;;;;;;2.05;1.80;;;19.60;20.60;;;;;;5032930;28;20163;-53
2021/03/05 07:52:11;;;;;;;3.05;2.08;;;19.60;20.60;;;;;;5033135;28;20516;-51
2021/03/05 07:54:40;;;;;;;1.65;1.55;;;19.60;20.60;;;;;;5032606;28;20239;-52
2021/03/05 07:57:25;;;;;;;1.40;1.30;;;19.60;20.60;;;;;;5030014;28;20175;-52
2021/03/05 07:59:52;;;;;;;2.60;1.67;;;19.60;20.60;;;;;;5032402;28;20211;-51
2021/03/05 08:02:26;;;;;;;1.88;1.77;;;19.60;20.60;;;;;;5022850;28;20310;-51
2021/03/05 08:07:28;;;;;;;1.77;1.67;;;19.60;20.60;;;;;;5023376;28;20673;-52
2021/03/05 08:09:57;;;;;;;1.70;1.60;;;19.60;20.60;;;;;;5019552;28;20183;-52
2021/03/05 08:12:45;;;;;;;1.77;1.67;;;19.60;20.60;;;;;;5007330;28;20195;-52
2021/03/05 08:15:10;;;;;;;2.13;1.75;;;19.60;20.60;;;;;;5021163;28;20678;-51
2021/03/05 08:17:44;;;;;;;2.00;1.77;;;19.60;20.60;;;;;;5023279;28;20669;-51
2021/03/05 08:20:30;;;;;;;1.92;1.60;;;19.60;20.60;;;;;;5019538;28;20188;-51
2021/03/05 08:22:58;;;;;;;2.50;1.98;;;19.60;20.60;;;;;;5023604;28;20187;-51
2021/03/05 08:25:35;;;;;;;1.50;1.40;;;19.60;20.60;;;;;;5022112;28;20333;-51
2021/03/05 08:28:03;;;;;;;1.60;1.50;;;19.60;20.60;;;;;;5028971;28;20194;-52
2021/03/05 08:30:29;;;;;;;1.90;1.70;;;19.60;20.60;;;;;;5009335;28;20164;-52
2021/03/05 08:33:01;;;;;;;1.97;1.87;;;19.60;20.60;;;;;;5021625;28;20176;-52
2021/03/05 08:35:30;;;;;;;1.73;1.58;;;19.60;20.60;;;;;;5027721;28;20756;-52
2021/03/05 08:38:00;;;;;;;1.88;1.65;;;19.60;20.60;;;;;;5024525;28;20168;-52
2021/03/05 08:40:27;;;;;;;2.08;1.40;;;19.60;20.60;;;;;;5033183;28;20167;-51
2021/03/05 08:43:19;;;;;;;2.00;1.50;;;19.60;20.60;;;;;;5028557;28;20238;-52
2021/03/05 08:45:56;;;;;;;2.80;2.42;;;19.60;20.60;;;;;;5026094;28;20227;-52
2021/03/05 08:48:33;;;;;;;2.72;1.65;;;19.60;20.60;;;;;;5033732;28;20694;-51
2021/03/05 08:51:08;;;;;;;2.10;1.70;;;19.60;20.60;;;;;;5005784;28;20603;-51
2021/03/05 08:53:39;;;;;;;1.70;1.60;;;19.60;20.50;;;;;;5031533;28;20191;-52
2021/03/05 08:56:04;;;;;;;1.42;1.33;;;19.60;20.60;;;;;;5029234;28;20274;-51
2021/03/05 08:58:30;;;;;;;1.90;1.77;;;19.60;20.50;;;;;;5024662;28;20279;-51
2021/03/05 09:00:56;;;;;;;1.90;1.73;;;19.60;20.50;;;;;;5028706;28;20415;-51
2021/03/05 09:03:21;;;;;;;2.20;1.77;;;19.60;20.60;;;;;;5026320;28;20195;-51
2021/03/05 09:05:57;;;;;;;2.03;1.60;;;19.60;20.50;;;;;;5028225;28;20255;-52
2021/03/05 09:08:27;;;;;;;1.92;1.65;;;19.60;20.60;;;;;;5024409;28;20187;-52
2021/03/05 09:11:00;;;;;;;1.73;1.63;;;19.60;20.50;;;;;;5026833;28;20168;-51
2021/03/05 09:13:33;;;;;;;1.25;1.15;;;19.60;20.50;;;;;;5026172;28;20195;-52
2021/03/05 09:16:04;;;;;;;1.92;1.73;;;19.60;20.60;;;;;;5031197;28;20258;-52
2021/03/05 09:18:30;;;;;;;1.92;1.75;;;19.60;20.60;;;;;;5023711;28;20227;-51
2021/03/05 09:20:58;;;;;;;1.60;1.50;;;19.60;20.60;;;;;;5030845;28;20262;-52
2021/03/05 09:23:35;;;;;;;3.22;1.98;;;19.60;20.60;;;;;;5019736;28;20163;-52
2021/03/05 09:26:08;;;;;;;1.77;1.40;;;19.60;20.60;;;;;;5026950;28;20168;-52
2021/03/05 09:28:41;;;;;;;1.88;1.52;;;19.60;20.60;;;;;;5021894;28;20183;-51
2021/03/05 09:31:09;;;;;;;2.10;1.83;;;19.60;20.50;;;;;;5024815;28;20169;-51
2021/03/05 09:33:38;;;;;;;1.67;1.58;;;19.60;20.60;;;;;;5022652;28;20171;-52
2021/03/05 09:36:13;;;;;;;2.83;1.65;;;19.60;20.60;;;;;;5030752;28;20191;-52
2021/03/05 09:38:44;;;;;;;2.15;1.50;;;19.60;20.60;;;;;;5030005;28;20225;-52
2021/03/05 09:41:12;;;;;;;1.73;1.60;;;19.60;20.60;;;;;;5029099;28;20183;-52
2021/03/05 09:43:39;;;;;;;1.40;1.30;;;19.60;20.60;;;;;;5025684;28;20168;-51
2021/03/05 09:46:27;;;;;;;1.60;1.38;;;19.60;20.60;;;;;;5023030;28;20168;-51
2021/03/05 09:48:55;;;;;;;2.45;1.60;;;19.60;20.50;;;;;;5029215;28;20234;-52
2021/03/05 09:51:21;;;;;;;1.88;1.70;;;19.60;20.50;;;;;;5027410;28;20615;-52
2021/03/05 09:53:55;;;;;;;1.55;1.45;;;19.60;20.50;;;;;;5024409;28;20177;-51
2021/03/05 09:56:24;;;;;;;1.98;1.80;;;19.60;20.50;;;;;;5023957;28;20184;-51
2021/03/05 09:59:00;;;;;;;1.63;1.40;;;19.60;20.50;;;;;;5029262;28;20187;-52
2021/03/05 10:01:33;;;;;;;1.67;1.58;;;19.60;20.50;;;;;;5018233;28;20184;-52
2021/03/05 10:04:01;;;;;;;2.28;1.95;;;19.60;20.50;;;;;;5025095;28;20195;-52
2021/03/05 10:06:28;;;;;;;2.65;2.30;;;19.60;20.50;;;;;;5019879;28;20168;-52
2021/03/05 10:08:59;;;;;;;2.03;1.83;;;19.60;20.50;;;;;;5013672;28;20192;-52
2021/03/05 10:11:35;;;;;;;1.90;1.70;;;19.60;20.50;;;;;;5029800;28;20167;-52
2021/03/05 10:14:05;;;;;;;2.53;1.30;;;19.60;20.50;;;;;;5029471;28;20183;-52
2021/03/05 10:16:35;;;;;;;2.25;2.05;;;19.60;20.50;;;;;;5025536;28;20180;-52
2021/03/05 10:19:18;;;;;;;2.38;1.98;;;19.60;20.50;;;;;;5023566;28;20759;-52
2021/03/05 10:21:48;;;;;;;3.28;1.83;;;19.60;20.40;;;;;;5025319;28;20630;-52
2021/03/05 10:24:16;;;;;;;1.60;1.50;;;19.60;20.50;;;;;;5025636;28;20678;-51
2021/03/05 10:29:48;;;;;;;2.50;1.92;;;19.60;20.40;;;;;;5019639;28;20187;-51
2021/03/05 10:32:33;;;;;;;1.63;1.52;;;19.60;20.40;;;;;;5007681;28;287483;-52
2021/03/05 10:35:11;;;;;;;2.65;2.35;;;19.60;20.40;;;;;;5024627;28;20180;-52
2021/03/05 10:37:38;;;;;;;2.55;2.20;;;19.60;20.40;;;;;;5026483;28;20175;-52
2021/03/05 10:40:09;;;;;;;1.60;1.50;;;19.60;20.40;;;;;;5029062;28;20222;-52
2021/03/05 10:42:35;;;;;;;2.60;1.63;;;19.60;20.40;;;;;;5030561;28;20284;-52
2021/03/05 10:45:01;;;;;;;1.67;1.58;;;19.60;20.40;;;;;;5021045;28;20195;-52
2021/03/05 10:47:27;;;;;;;1.73;1.58;;;19.60;20.40;;;;;;5006769;28;20658;-52
2021/03/05 10:49:53;;;;;;;2.20;1.80;;;19.60;20.40;;;;;;5031468;28;20195;-52
2021/03/05 10:52:23;;;;;;;2.17;1.80;;;19.60;20.40;;;;;;5022026;28;20429;-51
2021/03/05 10:54:49;;;;;;;2.22;2.03;;;19.60;20.40;;;;;;5031262;28;20204;-54
2021/03/05 10:57:16;;;;;;;1.40;1.30;;;19.60;20.40;;;;;;5032027;28;20278;-53
2021/03/05 10:59:43;;;;;;;2.75;2.33;;;19.60;20.40;;;;;;5032488;28;20195;-53
2021/03/05 11:02:09;;;;;;;2.65;2.15;;;19.60;20.40;;;;;;5014637;28;20188;-54
2021/03/05 11:04:35;;;;;;;2.43;1.77;;;19.60;20.40;;;;;;5025615;28;20677;-53
2021/03/05 11:07:02;;;;;;;1.60;1.50;;;19.60;20.40;;;;;;5032507;28;20472;-54
2021/03/05 11:09:28;;;;;;;1.42;1.33;;;19.60;20.40;;;;;;4999375;28;20417;-54
2021/03/05 11:11:55;;;;;;;2.15;1.98;;;19.60;20.40;;;;;;5023960;28;20179;-53
2021/03/05 11:14:23;;;;;;;3.30;2.08;;;19.60;20.40;;;;;;5033080;28;20168;-54
2021/03/05 11:16:53;;;;;;;1.98;1.38;;;19.60;20.40;;;;;;5023426;28;20191;-54
2021/03/05 11:19:26;;;;;;;2.40;1.90;;;19.60;20.30;;;;;;5019900;28;20215;-53
2021/03/05 11:21:54;;;;;;;1.60;1.50;;;19.60;20.30;;;;;;5015800;28;20176;-53
2021/03/05 11:24:20;;;;;;;1.52;1.42;;;19.60;20.30;;;;;;5011803;28;20532;-52
2021/03/05 11:26:46;;;;;;;2.33;1.90;;;19.60;20.30;;;;;;5022606;28;20267;-53
2021/03/05 11:29:14;;;;;;;1.83;1.73;;;19.60;20.30;;;;;;5022897;28;20179;-53
2021/03/05 11:31:40;;;;;;;3.85;1.88;;;19.60;20.30;;;;;;5028369;28;20183;-52
2021/03/05 11:34:06;;;;;;;2.13;1.70;;;19.60;20.40;;;;;;5022407;28;20528;-53
2021/03/05 11:36:32;;;;;;;3.90;1.87;;;19.60;20.40;;;;;;5020180;28;20443;-53
2021/03/05 11:38:57;;;;;;;1.93;1.73;;;19.60;20.40;;;;;;5030467;28;20681;-53
2021/03/05 11:41:23;;;;;;;1.83;1.70;;;19.60;20.40;;;;;;5019250;28;20180;-53
2021/03/05 11:43:51;;;;;;;2.07;1.30;;;19.60;20.40;;;;;;5027938;28;20168;-53
2021/03/05 11:46:21;;;;;;;1.67;1.48;;;19.60;20.40;;;;;;5022995;28;20397;-54
2021/03/05 11:48:48;;;;;;;1.35;1.25;;;19.60;20.40;;;;;;5028906;28;20625;-53
2021/03/05 11:51:17;;;;;;;2.50;1.80;;;19.60;20.40;;;;;;5019720;28;20172;-54
2021/03/05 11:53:43;;;;;;;1.60;1.35;;;19.60;20.40;;;;;;5027551;28;20639;-53
2021/03/05 11:56:09;;;;;;;2.85;1.80;;;19.60;20.40;;;;;;5024401;28;20538;-53
2021/03/05 11:58:36;;;;;;;1.63;1.40;;;19.60;20.40;;;;;;5015803;28;20639;-53
2021/03/05 12:01:02;;;;;;;2.08;1.70;;;19.60;20.40;;;;;;5021147;28;20434;-54
2021/03/05 12:03:30;;;;;;;2.13;1.60;;;19.60;20.40;;;;;;5025424;28;20172;-53
2021/03/05 12:05:56;;;;;;;2.35;1.40;;;19.60;20.40;;;;;;5028542;28;20642;-53
2021/03/05 12:08:22;;;;;;;1.80;1.70;;;19.60;20.40;;;;;;5020569;28;20183;-53
2021/03/05 12:10:48;;;;;;;3.53;1.63;;;19.60;20.40;;;;;;5026227;28;22146;-53
2021/03/05 12:13:14;;;;;;;2.08;1.88;;;17.80;19.20;;;;;;5021790;28;20184;-54
2021/03/05 12:15:40;;;;;;;2.07;1.43;;;19.60;20.40;;;;;;5028702;28;20179;-54
2021/03/05 12:18:11;;;;;;;1.80;1.70;;;19.60;20.40;;;;;;5029777;28;20227;-54
2021/03/05 12:20:37;;;;;;;2.55;1.80;;;19.60;20.40;;;;;;5024717;28;20179;-53
2021/03/05 12:23:03;;;;;;;1.58;1.48;;;19.60;20.40;;;;;;5016306;28;22172;-54
2021/03/05 12:25:29;;;;;;;1.40;1.30;;;19.60;20.40;;;;;;5030327;28;20195;-54
2021/03/05 12:27:55;;;;;;;2.47;2.00;;;19.60;20.40;;;;;;5025888;28;20248;-53
2021/03/05 12:30:21;;;;;;;2.53;1.80;;;19.60;20.40;;;;;;5032418;28;20174;-54
2021/03/05 12:32:47;;;;;;;2.17;1.50;;;19.60;20.40;;;;;;5025844;28;20192;-53
2021/03/05 12:35:14;;;;;;;5.90;1.77;;;19.60;20.30;;;;;;5027598;28;20184;-55
2021/03/05 12:37:40;;;;;;;3.28;1.67;;;19.60;20.30;;;;;;5000024;28;20180;-53
2021/03/05 12:40:07;;;;;;;3.25;1.70;;;19.60;20.60;;;;;;5023199;28;20204;-52
2021/03/05 12:42:34;;;;;;;3.35;1.40;;;19.60;21.10;;;;;;5031571;28;20174;-53
2021/03/05 12:45:00;;;;;;;6.60;2.00;;;19.60;21.50;;;;;;5029620;28;20631;-54
2021/03/05 12:47:26;;;;;;;3.20;1.40;;;19.70;21.80;;;;;;5028863;28;20203;-54
2021/03/05 12:49:51;;;;;;;2.23;1.70;;;19.60;21.80;;;;;;5030733;28;20234;-53
2021/03/05 12:52:17;;;;;;;2.53;1.57;;;19.70;22.00;;;;;;5026910;28;20190;-54
2021/03/05 12:54:42;;;;;;;1.97;1.70;;;19.70;22.10;;;;;;5026861;28;20187;-54
2021/03/05 12:57:08;;;;;;;2.10;1.10;;;19.70;22.10;;;;;;5031274;28;20179;-55
2021/03/05 12:59:34;;;;;;;2.30;1.50;;;19.70;22.10;;;;;;5021456;28;20188;-55
2021/03/05 13:02:02;;;;;;;1.83;1.07;;;19.70;22.10;;;;;;5021905;28;20183;-53